Time;durP1;ratioP1;P1;durP2;ratioP2;P2;SDS_P1;SDS_P2;PMS_P1;PMS_P2;Temp;Humidity;BMP_temperature;BMP_pressure;BME280_temperature;BME280_humidity;BME280_pressure;Samples;Min_cycle;Max_cycle;Signal;HPM_P1;HPM_P2
2023/07/01 00:01:38;;;;;;;17.57;7.67;;;;;;;18.01;73.13;99855.75;124745;1098;104360;-81
2023/07/01 00:04:10;;;;;;;17.70;8.50;;;;;;;17.98;73.13;99854.89;124598;1099;104361;-81
2023/07/01 00:06:42;;;;;;;14.70;7.23;;;;;;;17.94;73.52;99851.38;124562;1099;104319;-79
2023/07/01 00:09:13;;;;;;;16.35;7.40;;;;;;;17.92;73.58;99861.09;124532;1099;104245;-80
2023/07/01 00:11:44;;;;;;;13.20;7.50;;;;;;;17.89;73.62;99856.70;124517;1099;104249;-81
2023/07/01 00:14:16;;;;;;;14.30;7.30;;;;;;;17.86;73.73;99856.69;124526;1099;104408;-80
2023/07/01 00:16:47;;;;;;;15.47;7.77;;;;;;;17.86;73.74;99867.30;124529;1099;104226;-79
2023/07/01 00:19:18;;;;;;;16.93;7.53;;;;;;;17.87;73.58;99873.48;124418;1099;104300;-81
2023/07/01 00:21:50;;;;;;;14.23;7.40;;;;;;;17.88;73.93;99869.95;124201;1099;104296;-80
2023/07/01 00:24:21;;;;;;;15.80;7.53;;;;;;;17.87;73.92;99862.86;124258;1099;104233;-79
2023/07/01 00:26:52;;;;;;;17.87;7.57;;;;;;;17.82;73.81;99865.53;124335;1098;104761;-79
2023/07/01 00:29:23;;;;;;;16.63;7.90;;;;;;;17.78;74.15;99869.11;124370;1099;105745;-80
2023/07/01 00:31:56;;;;;;;17.00;8.20;;;;;;;17.73;74.29;99862.92;124325;1099;104408;-79
2023/07/01 00:34:27;;;;;;;16.60;7.70;;;;;;;17.69;74.10;99867.36;124329;1099;104354;-81
2023/07/01 00:36:58;;;;;;;15.03;8.10;;;;;;;17.67;74.20;99873.55;124437;1099;104238;-79
2023/07/01 00:39:29;;;;;;;13.97;7.77;;;;;;;17.64;74.68;99876.21;123999;1099;104305;-81
2023/07/01 00:42:01;;;;;;;14.27;8.20;;;;;;;17.61;74.32;99875.34;123941;1099;104491;-81
2023/07/01 00:44:32;;;;;;;15.93;7.83;;;;;;;17.63;74.92;99863.86;124388;1099;104373;-81
2023/07/01 00:47:03;;;;;;;16.27;7.70;;;;;;;17.68;74.65;99868.23;124368;1099;104711;-80
2023/07/01 00:49:35;;;;;;;15.70;8.00;;;;;;;17.71;74.95;99862.05;124199;1099;104242;-81
2023/07/01 00:52:09;;;;;;;16.53;8.50;;;;;;;17.74;74.77;99859.39;124431;1099;104294;-80
2023/07/01 00:54:40;;;;;;;19.62;7.97;;;;;;;17.75;74.91;99858.51;124451;1099;104239;-81
2023/07/01 00:57:11;;;;;;;17.20;8.00;;;;;;;17.77;74.91;99857.59;124461;1098;104267;-80
2023/07/01 00:59:43;;;;;;;18.00;8.37;;;;;;;17.80;74.85;99864.67;124280;1098;104341;-81
2023/07/01 01:02:22;;;;;;;18.23;8.33;;;;;;;17.76;75.16;99862.91;124423;1099;104628;-80
2023/07/01 01:05:02;;;;;;;17.47;7.93;;;;;;;17.68;74.88;99867.37;124252;1097;104351;-79
2023/07/01 01:07:43;;;;;;;16.83;8.63;;;;;;;17.60;75.13;99865.61;124057;1099;104222;-80
2023/07/01 01:10:18;;;;;;;20.20;8.50;;;;;;;17.56;75.17;99869.18;124201;1099;104322;-80
2023/07/01 01:12:51;;;;;;;15.45;8.20;;;;;;;17.53;75.37;99868.28;124328;1099;104242;-81
2023/07/01 01:15:24;;;;;;;20.07;8.67;;;;;;;17.48;75.20;99864.77;124406;1098;104348;-81
2023/07/01 01:18:01;;;;;;;17.10;8.53;;;;;;;17.41;75.14;99872.74;124579;1098;104755;-80
2023/07/01 01:20:36;;;;;;;17.43;8.60;;;;;;;17.35;75.18;99870.10;124370;1099;104457;-81
2023/07/01 01:23:13;;;;;;;15.67;8.07;;;;;;;17.31;75.26;99868.36;124037;1099;104300;-81
2023/07/01 01:25:48;;;;;;;16.20;8.33;;;;;;;17.26;75.60;99870.12;124103;1099;104258;-81
2023/07/01 01:28:20;;;;;;;15.50;8.15;;;;;;;17.22;75.79;99871.91;124080;1099;104281;-81
2023/07/01 01:30:51;;;;;;;15.30;8.40;;;;;;;17.16;75.40;99865.73;124022;1099;104327;-81
2023/07/01 01:33:23;;;;;;;14.97;8.53;;;;;;;17.12;75.86;99870.13;124266;1099;104270;-80
2023/07/01 01:35:58;;;;;;;18.90;8.37;;;;;;;17.11;75.97;99864.83;124340;1099;104320;-81
2023/07/01 01:38:34;;;;;;;18.57;8.47;;;;;;;17.09;76.12;99866.61;124411;1099;104251;-79
2023/07/01 01:41:10;;;;;;;16.70;8.53;;;;;;;17.06;76.28;99875.44;124498;1098;104159;-80
2023/07/01 01:43:47;;;;;;;18.03;8.87;;;;;;;17.04;76.42;99863.97;124725;1099;104352;-80
2023/07/01 01:46:20;;;;;;;15.13;8.67;;;;;;;17.02;75.98;99869.27;124495;1099;104245;-79
2023/07/01 01:48:53;;;;;;;16.37;8.33;;;;;;;17.00;75.95;99863.09;124338;1099;104270;-79
2023/07/01 01:51:27;;;;;;;17.43;8.37;;;;;;;17.01;76.51;99867.48;124164;1099;104348;-79
2023/07/01 01:53:59;;;;;;;17.47;8.43;;;;;;;17.01;76.39;99863.97;124458;1099;104168;-79
2023/07/01 01:56:32;;;;;;;21.37;9.47;;;;;;;17.03;75.96;99864.84;124377;1099;104245;-78
2023/07/01 01:59:03;;;;;;;19.20;8.77;;;;;;;17.04;76.18;99867.48;124211;1099;104368;-80
2023/07/01 02:01:36;;;;;;;16.67;8.37;;;;;;;17.09;76.71;99862.19;124436;1099;104261;-79
2023/07/01 02:04:07;;;;;;;17.70;8.37;;;;;;;17.13;76.31;99863.95;124473;1099;104274;-78
2023/07/01 02:06:39;;;;;;;19.77;9.00;;;;;;;17.18;76.56;99863.95;124409;1099;104326;-78
2023/07/01 02:09:10;;;;;;;16.03;8.47;;;;;;;17.22;77.27;99858.64;124383;1099;104357;-80
2023/07/01 02:11:41;;;;;;;16.30;8.50;;;;;;;17.28;76.71;99862.16;124235;1099;104296;-81
2023/07/01 02:14:12;;;;;;;17.13;8.23;;;;;;;17.29;76.83;99861.28;124210;1099;104313;-80
2023/07/01 02:16:44;;;;;;;15.73;8.30;;;;;;;17.33;76.23;99855.10;123937;1099;104347;-81
2023/07/01 02:19:15;;;;;;;15.70;8.00;;;;;;;17.32;76.71;99859.50;124262;1099;104271;-80
2023/07/01 02:21:47;;;;;;;14.80;8.65;;;;;;;17.29;76.83;99859.51;124326;1099;104356;-81
2023/07/01 02:24:18;;;;;;;17.30;8.80;;;;;;;17.27;76.70;99869.24;124289;1099;104418;-79
2023/07/01 02:26:50;;;;;;;17.17;8.27;;;;;;;17.24;76.72;99872.77;124373;1099;104834;-79
2023/07/01 02:29:23;;;;;;;17.50;9.10;;;;;;;17.20;76.52;99870.13;124122;1099;104255;-79
2023/07/01 02:31:54;;;;;;;19.03;9.63;;;;;;;17.15;76.82;99870.13;124290;1099;104236;-80
2023/07/01 02:34:28;;;;;;;18.43;9.33;;;;;;;17.10;76.71;99869.27;124023;1099;104179;-82
2023/07/01 02:37:00;;;;;;;17.83;9.13;;;;;;;17.05;76.49;99874.57;124125;1099;104450;-80
2023/07/01 02:39:31;;;;;;;16.40;8.65;;;;;;;17.02;76.96;99873.70;124473;1099;104224;-79
2023/07/01 02:42:02;;;;;;;18.43;9.40;;;;;;;16.97;77.37;99870.14;124118;1099;104309;-80
2023/07/01 02:44:33;;;;;;;18.30;9.20;;;;;;;16.93;76.92;99871.05;124290;1099;104839;-80
2023/07/01 02:47:05;;;;;;;20.10;9.63;;;;;;;16.90;76.91;99871.92;124533;1099;104229;-80
2023/07/01 02:49:40;;;;;;;17.03;9.43;;;;;;;16.89;77.59;99871.05;124327;1099;104346;-80
2023/07/01 02:52:12;;;;;;;20.80;9.60;;;;;;;16.91;77.05;99867.49;124212;1099;104742;-80
2023/07/01 02:54:43;;;;;;;18.50;9.75;;;;;;;16.91;77.59;99864.84;124372;1098;104380;-79
2023/07/01 02:57:15;;;;;;;17.33;9.70;;;;;;;16.94;77.74;99856.89;124307;1099;104200;-79
2023/07/01 02:59:47;;;;;;;17.83;9.67;;;;;;;17.00;77.57;99857.80;124227;1099;104235;-79
2023/07/01 03:02:18;;;;;;;17.67;9.53;;;;;;;17.04;77.53;99856.02;124165;1099;104412;-80
2023/07/01 03:04:49;;;;;;;19.10;9.40;;;;;;;17.06;78.17;99859.53;124155;1099;104379;-82
2023/07/01 03:07:21;;;;;;;20.43;10.00;;;;;;;17.10;77.79;99866.61;124364;1098;104300;-80
2023/07/01 03:09:52;;;;;;;17.17;9.20;;;;;;;17.17;77.73;99870.13;123964;1099;104376;-80
2023/07/01 03:12:23;;;;;;;19.83;9.70;;;;;;;17.19;78.17;99866.60;124059;1099;104222;-79
2023/07/01 03:14:54;;;;;;;18.53;9.57;;;;;;;17.18;77.96;99859.52;124259;1098;104245;-81
2023/07/01 03:17:26;;;;;;;17.63;9.50;;;;;;;17.18;77.87;99861.30;124347;1099;104268;-81
2023/07/01 03:19:57;;;;;;;18.37;9.80;;;;;;;17.19;77.88;99856.00;124344;1099;104223;-80
2023/07/01 03:22:29;;;;;;;15.87;9.40;;;;;;;17.20;77.96;99855.13;124419;1098;104358;-82
2023/07/01 03:25:02;;;;;;;16.67;9.80;;;;;;;17.22;78.45;99857.77;124390;1099;104322;-79
2023/07/01 03:27:33;;;;;;;17.00;9.40;;;;;;;17.24;77.98;99856.86;124276;1099;104242;-81
2023/07/01 03:30:13;;;;;;;19.63;9.87;;;;;;;17.28;78.50;99864.81;124187;1099;104274;-79
2023/07/01 03:32:47;;;;;;;16.17;9.60;;;;;;;17.28;78.33;99863.06;124056;1099;105485;-80
2023/07/01 03:35:20;;;;;;;19.70;9.80;;;;;;;17.27;78.24;99860.42;124449;1099;104193;-81
2023/07/01 03:37:51;;;;;;;18.98;9.23;;;;;;;17.26;78.42;99864.81;124343;1099;104234;-79
2023/07/01 03:40:23;;;;;;;16.23;9.00;;;;;;;17.28;78.21;99862.16;124377;1099;104316;-81
2023/07/01 03:42:58;;;;;;;16.47;9.27;;;;;;;17.33;78.50;99865.70;124478;1099;104245;-81
2023/07/01 03:45:30;;;;;;;16.47;9.07;;;;;;;17.39;78.61;99866.57;124445;1099;104172;-79
2023/07/01 03:48:01;;;;;;;16.37;9.60;;;;;;;17.43;78.31;99862.13;124323;1098;104267;-80
2023/07/01 03:50:33;;;;;;;18.17;9.70;;;;;;;17.46;78.64;99871.86;124319;1098;104242;-79
2023/07/01 03:53:05;;;;;;;18.95;9.65;;;;;;;17.49;78.54;99864.77;123983;1099;104245;-80
2023/07/01 03:55:36;;;;;;;17.30;9.30;;;;;;;17.52;78.46;99867.41;124316;1099;104733;-80
2023/07/01 03:58:07;;;;;;;19.23;9.87;;;;;;;17.55;78.69;99867.41;124269;1099;104347;-81
2023/07/01 04:00:39;;;;;;;18.53;9.23;;;;;;;17.59;78.71;99863.87;124205;1099;104274;-80
2023/07/01 04:03:10;;;;;;;18.40;9.13;;;;;;;17.66;78.80;99859.41;124231;1098;104587;-79
2023/07/01 04:05:41;;;;;;;17.80;9.43;;;;;;;17.74;78.64;99859.39;124324;1099;104265;-79
2023/07/01 04:08:13;;;;;;;18.20;9.30;;;;;;;17.83;78.74;99864.66;124366;1099;104271;-80
2023/07/01 04:10:44;;;;;;;17.67;9.17;;;;;;;17.91;78.59;99869.97;124301;1099;104351;-80
2023/07/01 04:13:16;;;;;;;17.27;9.13;;;;;;;18.00;78.46;99874.33;124144;1099;104647;-79
2023/07/01 04:15:47;;;;;;;19.23;9.40;;;;;;;18.10;78.45;99870.75;124311;1099;104320;-80
2023/07/01 04:18:18;;;;;;;16.90;9.30;;;;;;;18.22;78.62;99861.86;124259;1099;104258;-80
2023/07/01 04:20:50;;;;;;;18.20;9.07;;;;;;;18.37;78.79;99868.83;124374;1099;104242;-80
2023/07/01 04:23:21;;;;;;;15.63;9.07;;;;;;;18.50;78.52;99873.19;124060;1099;104271;-81
2023/07/01 04:25:52;;;;;;;16.20;8.13;;;;;;;18.66;78.71;99872.16;124665;1099;104351;-81
2023/07/01 04:28:24;;;;;;;15.00;8.57;;;;;;;18.83;78.04;99866.72;124764;1097;104219;-80
2023/07/01 04:30:55;;;;;;;15.23;8.33;;;;;;;19.01;78.37;99870.14;124524;1099;104333;-81
2023/07/01 04:33:26;;;;;;;16.13;8.77;;;;;;;19.18;78.23;99876.21;124301;1099;104239;-79
2023/07/01 04:35:57;;;;;;;16.67;8.40;;;;;;;19.34;77.78;99878.72;124304;1099;104265;-80
2023/07/01 04:38:28;;;;;;;13.83;8.43;;;;;;;19.49;78.10;99880.33;123754;1099;104242;-78
2023/07/01 04:41:00;;;;;;;15.80;8.90;;;;;;;19.63;77.67;99866.86;123679;1099;104299;-80
2023/07/01 04:43:31;;;;;;;16.83;8.07;;;;;;;19.74;78.00;99868.52;123892;1099;104396;-78
2023/07/01 04:46:03;;;;;;;17.47;8.63;;;;;;;19.86;77.90;99867.50;123980;1099;104280;-77
2023/07/01 04:48:34;;;;;;;17.73;7.93;;;;;;;20.00;77.27;99869.98;124076;1098;104335;-79
2023/07/01 04:51:06;;;;;;;16.50;8.00;;;;;;;20.10;76.59;99874.30;123814;1099;104293;-80
2023/07/01 04:53:40;;;;;;;15.50;7.80;;;;;;;20.22;76.43;99875.03;123855;1099;104239;-79
2023/07/01 04:56:11;;;;;;;16.13;7.80;;;;;;;20.31;76.22;99877.57;123941;1099;104418;-80
2023/07/01 04:58:42;;;;;;;16.07;8.53;;;;;;;20.34;76.69;99882.86;124011;1098;104345;-79
2023/07/01 05:01:14;;;;;;;16.10;8.37;;;;;;;20.36;75.75;99891.70;123706;1099;104303;-82
2023/07/01 05:03:45;;;;;;;15.40;8.30;;;;;;;20.35;75.84;99892.62;123857;1099;104269;-79
2023/07/01 05:06:16;;;;;;;19.50;9.00;;;;;;;20.37;76.33;99881.94;123910;1099;117900;-79
2023/07/01 05:08:47;;;;;;;14.90;8.40;;;;;;;20.42;76.01;99888.08;123868;1099;104268;-78
2023/07/01 05:11:19;;;;;;;15.93;8.63;;;;;;;20.51;75.37;99882.61;123901;1099;104223;-78
2023/07/01 05:13:50;;;;;;;17.40;9.37;;;;;;;20.62;75.36;99888.66;123946;1099;104339;-79
2023/07/01 05:16:21;;;;;;;16.20;9.10;;;;;;;20.74;76.26;99892.05;123948;1099;104358;-80
2023/07/01 05:18:54;;;;;;;15.25;8.50;;;;;;;20.86;75.22;99893.66;123850;1102;104663;-80
2023/07/01 05:21:25;;;;;;;17.07;9.08;;;;;;;21.01;75.27;99885.41;123819;1102;104159;-78
2023/07/01 05:23:56;;;;;;;17.75;9.45;;;;;;;21.14;76.05;99886.94;124012;1099;104281;-79
2023/07/01 05:26:28;;;;;;;18.23;9.00;;;;;;;21.25;75.19;99893.88;124020;1099;104345;-79
2023/07/01 05:28:59;;;;;;;15.83;8.87;;;;;;;21.32;74.21;99890.20;124136;1099;104222;-79
2023/07/01 05:31:30;;;;;;;18.23;9.20;;;;;;;21.39;75.29;99890.97;124166;1099;104207;-79
2023/07/01 05:34:01;;;;;;;15.80;8.83;;;;;;;21.44;74.80;99889.98;124252;1099;104383;-79
2023/07/01 05:36:33;;;;;;;18.23;9.20;;;;;;;21.51;74.51;99891.64;124422;1099;104227;-78
2023/07/01 05:39:04;;;;;;;19.93;9.27;;;;;;;21.62;74.07;99904.78;124298;1099;104473;-77
2023/07/01 05:41:36;;;;;;;17.90;9.30;;;;;;;21.71;74.10;99893.06;124252;1099;104248;-76
2023/07/01 05:44:07;;;;;;;19.80;9.37;;;;;;;21.83;74.22;99886.58;124290;1098;104337;-75
2023/07/01 05:46:40;;;;;;;19.00;9.40;;;;;;;21.96;74.08;99884.55;124130;1099;104255;-78
2023/07/01 05:49:11;;;;;;;17.48;9.10;;;;;;;22.06;74.17;99876.31;125198;1099;104197;-78
2023/07/01 05:51:42;;;;;;;18.70;9.10;;;;;;;22.20;73.33;99875.12;124308;1098;104373;-77
2023/07/01 05:54:14;;;;;;;19.40;8.57;;;;;;;22.31;73.37;99872.23;123989;1099;104226;-76
2023/07/01 05:56:45;;;;;;;17.50;8.10;;;;;;;22.39;73.24;99870.27;123892;1099;104255;-77
2023/07/01 05:59:17;;;;;;;18.30;8.27;;;;;;;22.47;72.62;99881.68;124031;1098;104277;-77
2023/07/01 06:01:48;;;;;;;19.60;8.43;;;;;;;22.51;72.55;99866.44;123941;1099;104716;-77
2023/07/01 06:04:19;;;;;;;16.57;7.70;;;;;;;22.55;72.16;99866.33;123804;1098;104344;-77
2023/07/01 06:06:51;;;;;;;15.60;7.50;;;;;;;22.60;72.30;99868.90;123654;1099;104265;-75
2023/07/01 06:09:22;;;;;;;16.33;7.83;;;;;;;22.64;71.78;99867.02;123389;1099;104268;-75
2023/07/01 06:11:53;;;;;;;13.13;7.87;;;;;;;22.68;71.82;99874.93;123744;1098;104428;-75
2023/07/01 06:14:24;;;;;;;10.67;6.77;;;;;;;22.73;71.85;99867.66;123588;1099;104274;-77
2023/07/01 06:16:56;;;;;;;14.03;7.23;;;;;;;22.76;71.53;99864.05;123851;1099;104271;-77
2023/07/01 06:19:27;;;;;;;15.00;7.80;;;;;;;22.81;71.52;99867.48;123873;1099;104263;-76
2023/07/01 06:21:58;;;;;;;15.03;7.87;;;;;;;22.86;71.08;99876.29;123743;1099;104629;-77
2023/07/01 06:24:29;;;;;;;15.53;7.70;;;;;;;22.92;70.60;99870.79;123971;1099;104390;-78
2023/07/01 06:27:01;;;;;;;15.23;7.90;;;;;;;22.96;70.27;99861.75;123836;1099;104268;-78
2023/07/01 06:29:32;;;;;;;17.53;7.73;;;;;;;23.03;70.29;99867.84;123469;1099;104284;-76
2023/07/01 06:32:03;;;;;;;13.75;7.00;;;;;;;23.09;69.65;99864.14;123536;1099;104313;-77
2023/07/01 06:34:35;;;;;;;14.90;7.40;;;;;;;23.14;69.66;99867.59;123868;1098;104252;-77
2023/07/01 06:37:07;;;;;;;15.70;7.80;;;;;;;23.22;69.01;99870.95;123525;1099;104399;-78
2023/07/01 06:39:38;;;;;;;12.43;6.60;;;;;;;23.30;68.78;99866.26;123806;1099;104312;-78
2023/07/01 06:42:12;;;;;;;12.60;5.77;;;;;;;23.36;68.56;99859.88;123873;1099;104265;-75
2023/07/01 06:44:43;;;;;;;16.90;7.73;;;;;;;23.45;67.61;99862.30;123792;1099;104277;-77
2023/07/01 06:47:14;;;;;;;12.17;6.10;;;;;;;23.51;67.32;99864.80;123748;1099;104287;-76
2023/07/01 06:49:45;;;;;;;12.47;6.80;;;;;;;23.59;66.67;99855.66;123726;1099;104351;-76
2023/07/01 06:52:17;;;;;;;10.27;5.57;;;;;;;23.68;66.56;99856.30;123897;1099;104243;-77
2023/07/01 06:54:48;;;;;;;8.23;4.73;;;;;;;23.76;65.81;99852.50;123772;1099;104274;-77
2023/07/01 06:57:19;;;;;;;9.30;4.37;;;;;;;23.83;65.20;99854.09;123756;1099;104402;-75
2023/07/01 06:59:51;;;;;;;7.63;4.40;;;;;;;23.92;64.99;99852.95;123842;1099;104398;-77
2023/07/01 07:02:22;;;;;;;7.07;4.47;;;;;;;24.07;64.83;99857.86;123869;1099;104376;-77
2023/07/01 07:04:53;;;;;;;7.03;4.10;;;;;;;24.27;63.23;99849.21;123904;1099;104243;-77
2023/07/01 07:07:25;;;;;;;8.07;4.47;;;;;;;24.48;62.40;99852.13;123603;1099;104220;-77
2023/07/01 07:09:56;;;;;;;7.40;4.40;;;;;;;24.67;61.39;99855.16;123807;1099;104287;-77
2023/07/01 07:12:27;;;;;;;7.00;4.20;;;;;;;24.81;61.71;99860.03;123756;1099;104344;-76
2023/07/01 07:14:58;;;;;;;6.40;4.23;;;;;;;24.93;60.20;99857.84;123406;1099;104502;-75
2023/07/01 07:17:30;;;;;;;7.87;4.10;;;;;;;25.16;60.18;99853.47;123581;1099;104361;-75
2023/07/01 07:20:01;;;;;;;5.23;4.07;;;;;;;25.34;59.53;99843.94;123713;1099;104360;-77
2023/07/01 07:22:32;;;;;;;6.17;4.33;;;;;;;25.61;58.52;99849.23;123788;1099;104284;-76
2023/07/01 07:25:04;;;;;;;9.27;4.47;;;;;;;25.76;58.54;99864.80;123579;1099;104360;-75
2023/07/01 07:27:35;;;;;;;7.10;4.50;;;;;;;25.95;58.26;99856.91;123580;1098;104623;-76
2023/07/01 07:30:09;;;;;;;10.63;4.40;;;;;;;26.18;57.75;99856.05;123699;1099;104261;-76
2023/07/01 07:32:40;;;;;;;7.80;4.35;;;;;;;26.45;56.13;99855.02;123712;1099;104492;-76
2023/07/01 07:35:11;;;;;;;8.40;4.53;;;;;;;26.66;56.33;99861.36;123766;1099;104367;-75
2023/07/01 07:37:43;;;;;;;7.93;4.40;;;;;;;26.83;55.80;99852.59;123574;1099;104324;-76
2023/07/01 07:40:15;;;;;;;8.40;4.43;;;;;;;27.01;56.09;99857.20;123414;1098;104383;-75
2023/07/01 07:42:46;;;;;;;9.20;4.70;;;;;;;27.19;55.26;99852.86;123219;1099;104351;-75
2023/07/01 07:45:19;;;;;;;6.93;4.40;;;;;;;27.38;55.25;99852.09;123552;1098;104242;-78
2023/07/01 07:47:50;;;;;;;6.85;4.60;;;;;;;27.55;54.76;99852.20;123734;1099;104162;-76
2023/07/01 07:50:21;;;;;;;9.30;4.67;;;;;;;27.78;54.42;99844.88;123641;1098;104236;-78
2023/07/01 07:52:52;;;;;;;10.67;4.97;;;;;;;27.99;54.08;99853.83;123684;1099;104411;-75
2023/07/01 07:55:25;;;;;;;8.90;5.00;;;;;;;28.26;52.13;99839.98;123654;1099;104469;-76
2023/07/01 07:57:57;;;;;;;6.80;4.62;;;;;;;28.53;52.15;99848.53;123578;1099;104430;-76
2023/07/01 08:00:28;;;;;;;7.17;4.47;;;;;;;28.67;51.29;99846.09;123657;1099;104802;-75
2023/07/01 08:03:00;;;;;;;7.60;4.40;;;;;;;28.74;50.62;99849.34;123566;1099;104285;-76
2023/07/01 08:05:32;;;;;;;7.07;4.37;;;;;;;28.84;50.81;99842.55;123808;1098;104242;-77
2023/07/01 08:08:03;;;;;;;6.57;4.47;;;;;;;28.98;49.78;99849.05;123868;1099;104280;-75
2023/07/01 08:10:34;;;;;;;10.03;4.67;;;;;;;28.96;48.68;99846.42;123512;1099;104354;-77
2023/07/01 08:13:06;;;;;;;9.17;4.33;;;;;;;29.11;49.03;99849.28;123751;1099;104219;-78
2023/07/01 08:15:37;;;;;;;6.80;4.20;;;;;;;29.27;47.93;99844.02;123759;1099;104270;-77
2023/07/01 08:18:08;;;;;;;7.87;4.40;;;;;;;29.40;47.93;99843.29;123600;1099;104511;-76
2023/07/01 08:20:39;;;;;;;6.27;3.90;;;;;;;29.52;47.61;99844.45;123617;1099;104245;-78
2023/07/01 08:23:11;;;;;;;7.53;4.03;;;;;;;29.67;47.16;99834.65;123275;1099;104239;-75
2023/07/01 08:25:43;;;;;;;8.37;4.40;;;;;;;29.79;46.66;99845.74;123373;1099;104315;-76
2023/07/01 08:28:15;;;;;;;5.97;4.20;;;;;;;29.83;45.97;99834.71;123557;1099;104431;-78
2023/07/01 08:30:46;;;;;;;6.67;4.27;;;;;;;29.93;46.19;99838.66;123626;1099;104347;-77
2023/07/01 08:33:17;;;;;;;8.03;4.13;;;;;;;30.06;46.01;99832.55;123634;1099;104248;-77
2023/07/01 08:35:48;;;;;;;5.90;3.70;;;;;;;30.15;44.90;99833.87;123511;1099;104238;-77
2023/07/01 08:38:20;;;;;;;8.93;4.10;;;;;;;30.25;43.86;99832.41;123643;1098;104291;-78
2023/07/01 08:40:52;;;;;;;7.00;4.10;;;;;;;30.37;43.92;99826.30;123325;1099;104332;-77
2023/07/01 08:43:26;;;;;;;8.70;3.93;;;;;;;30.39;43.40;99829.81;123644;1099;104300;-77
2023/07/01 08:46:03;;;;;;;6.47;3.70;;;;;;;30.42;43.35;99832.34;123633;1099;104341;-77
2023/07/01 08:48:35;;;;;;;5.63;3.90;;;;;;;30.38;43.07;99822.60;123738;1099;104284;-76
2023/07/01 08:51:12;;;;;;;6.22;3.80;;;;;;;30.52;43.09;99824.55;123797;1099;104300;-77
2023/07/01 08:53:45;;;;;;;7.83;4.00;;;;;;;30.57;42.92;99821.58;123643;1099;104303;-76
2023/07/01 08:56:19;;;;;;;8.00;4.08;;;;;;;30.55;42.34;99815.39;123592;1099;104290;-76
2023/07/01 08:58:51;;;;;;;5.07;3.70;;;;;;;30.56;42.20;99808.99;123763;1099;104300;-78
2023/07/01 09:01:23;;;;;;;5.63;3.80;;;;;;;30.63;42.11;99822.08;124057;1099;104379;-77
2023/07/01 09:03:54;;;;;;;6.50;3.90;;;;;;;30.72;41.57;99817.97;123693;1099;104271;-76
2023/07/01 09:06:25;;;;;;;8.60;4.00;;;;;;;30.78;41.77;99814.91;123334;1099;104403;-77
2023/07/01 09:08:56;;;;;;;5.97;3.77;;;;;;;30.82;41.53;99815.58;123831;1098;104424;-78
2023/07/01 09:11:28;;;;;;;7.43;4.20;;;;;;;30.94;41.12;99817.56;123706;1099;104335;-77
2023/07/01 09:13:59;;;;;;;8.23;4.50;;;;;;;31.06;40.64;99809.72;123577;1099;104319;-77
2023/07/01 09:16:35;;;;;;;5.70;3.83;;;;;;;31.10;40.50;99814.82;123755;1099;104239;-76
2023/07/01 09:19:10;;;;;;;6.23;4.20;;;;;;;31.10;40.26;99806.70;123879;1098;104370;-77
2023/07/01 09:21:41;;;;;;;8.10;4.07;;;;;;;31.13;40.12;99798.38;123705;1099;104495;-76
2023/07/01 09:24:13;;;;;;;6.07;4.30;;;;;;;31.24;39.22;99800.44;123539;1098;104357;-78
2023/07/01 09:26:46;;;;;;;7.60;3.87;;;;;;;31.26;39.41;99793.10;123549;1099;104339;-79
2023/07/01 09:29:19;;;;;;;7.57;4.27;;;;;;;31.16;39.09;99798.19;123486;1099;104468;-76
2023/07/01 09:31:53;;;;;;;5.87;3.90;;;;;;;31.11;39.43;99792.19;123465;1099;104344;-77
2023/07/01 09:34:24;;;;;;;6.67;3.80;;;;;;;31.21;38.75;99789.78;123672;1099;104369;-77
2023/07/01 09:36:55;;;;;;;7.87;4.30;;;;;;;31.27;38.63;99789.41;123922;1099;104259;-77
2023/07/01 09:39:37;;;;;;;7.67;4.20;;;;;;;31.34;38.35;99788.06;123716;1098;105652;-77
2023/07/01 09:42:09;;;;;;;6.63;4.07;;;;;;;31.36;38.27;99782.55;123508;1099;104300;-77
2023/07/01 09:44:40;;;;;;;8.47;4.13;;;;;;;31.26;37.83;99775.95;123620;1099;104267;-76
2023/07/01 09:47:25;;;;;;;6.70;4.10;;;;;;;31.07;38.10;99787.95;123714;1099;104352;-76
2023/07/01 09:49:56;;;;;;;6.97;3.97;;;;;;;30.77;37.73;99779.79;123806;1099;104249;-79
2023/07/01 09:52:35;;;;;;;6.20;3.70;;;;;;;30.68;38.00;99777.63;123862;1099;104328;-77
2023/07/01 09:55:08;;;;;;;7.60;4.35;;;;;;;30.77;37.91;99775.23;123615;1098;104287;-77
2023/07/01 09:57:39;;;;;;;9.90;4.00;;;;;;;30.88;37.62;99776.44;123603;1099;104173;-77
2023/07/01 10:00:15;;;;;;;6.77;4.00;;;;;;;30.98;37.34;99767.70;123739;1099;104396;-77
2023/07/01 10:02:48;;;;;;;9.07;4.47;;;;;;;31.18;37.66;99757.45;123787;1099;104200;-77
2023/07/01 10:05:20;;;;;;;;;;;;;;;31.16;37.92;99756.69;123802;1099;104293;-77
2023/07/01 10:07:51;;;;;;;5.83;3.93;;;;;;;31.01;37.19;99761.23;123822;1099;104169;-77
2023/07/01 10:10:22;;;;;;;5.50;4.23;;;;;;;30.77;37.45;99760.84;123596;1098;104319;-76
2023/07/01 10:12:55;;;;;;;5.43;3.90;;;;;;;30.60;37.26;99759.13;123565;1099;104398;-77
2023/07/01 10:15:31;;;;;;;6.80;4.10;;;;;;;30.52;37.59;99753.31;123664;1099;104308;-79
2023/07/01 10:18:02;;;;;;;6.37;4.13;;;;;;;30.69;37.50;99755.88;123717;1099;104313;-78
2023/07/01 10:20:36;;;;;;;5.50;3.93;;;;;;;30.86;37.33;99744.03;123713;1099;104242;-78
2023/07/01 10:23:08;;;;;;;4.83;3.87;;;;;;;31.11;37.23;99742.56;123845;1099;104730;-77
2023/07/01 10:25:40;;;;;;;6.63;3.90;;;;;;;31.39;36.97;99740.84;123613;1099;104466;-77
2023/07/01 10:28:12;;;;;;;7.13;4.03;;;;;;;31.44;36.69;99741.41;123612;1099;104242;-77
2023/07/01 10:31:15;;;;;;;6.03;3.80;;;;;;;31.38;36.35;99742.66;123689;1099;104290;-78
2023/07/01 10:33:53;;;;;;;;;;;;;;;31.29;36.00;99737.82;123888;1098;104354;-78
2023/07/01 10:36:24;;;;;;;6.20;3.87;;;;;;;31.29;36.65;99737.82;123744;1099;104252;-78
2023/07/01 10:39:34;;;;;;;6.47;3.67;;;;;;;31.26;36.40;99743.43;123731;1099;104323;-78
2023/07/01 10:42:24;;;;;;;6.33;4.13;;;;;;;31.26;36.23;99729.88;123492;1099;104348;-78
2023/07/01 10:45:15;;;;;;;6.80;4.20;;;;;;;31.27;36.83;99734.34;123823;1099;104287;-77
2023/07/01 10:48:16;;;;;;;6.95;3.95;;;;;;;31.20;36.24;99728.45;123697;1099;104315;-78
2023/07/01 10:51:05;;;;;;;7.00;4.30;;;;;;;31.07;35.97;99728.34;123506;1099;104375;-79
2023/07/01 10:54:02;;;;;;;6.53;4.33;;;;;;;30.96;36.35;99725.38;123786;1099;104447;-79
2023/07/01 10:56:35;;;;;;;6.63;3.87;;;;;;;30.83;35.73;99731.54;123694;1099;104229;-78
2023/07/01 10:59:30;;;;;;;9.23;3.92;;;;;;;30.73;35.67;99724.95;123744;1099;104316;-77
2023/07/01 11:02:01;;;;;;;7.47;4.00;;;;;;;30.70;35.51;99724.25;123908;1099;104357;-78
2023/07/01 11:05:05;;;;;;;6.77;4.30;;;;;;;30.70;35.84;99717.02;123293;1099;104322;-78
2023/07/01 11:07:41;;;;;;;6.12;4.10;;;;;;;30.69;35.69;99717.11;123978;1098;104332;-79
2023/07/01 11:10:14;;;;;;;7.77;3.93;;;;;;;30.62;35.76;99712.06;123996;1099;104754;-77
2023/07/01 11:12:45;;;;;;;8.55;4.30;;;;;;;30.59;35.83;99714.06;123608;1098;104223;-78
2023/07/01 11:15:20;;;;;;;9.87;3.90;;;;;;;30.54;35.62;99711.66;123568;1099;104229;-78
2023/07/01 11:17:58;;;;;;;4.70;3.87;;;;;;;30.50;35.92;99712.80;123590;1099;104242;-76
2023/07/01 11:20:47;;;;;;;5.77;3.63;;;;;;;30.43;35.63;99706.89;123626;1099;104714;-76
2023/07/01 11:23:19;;;;;;;7.50;4.10;;;;;;;30.46;35.71;99703.11;123523;1098;104265;-77
2023/07/01 11:25:50;;;;;;;6.67;3.77;;;;;;;30.50;35.63;99701.11;123517;1099;104312;-77
2023/07/01 11:28:35;;;;;;;7.70;3.83;;;;;;;30.46;35.62;99704.00;123706;1099;104242;-75
2023/07/01 11:31:17;;;;;;;6.73;3.50;;;;;;;30.42;35.73;99704.27;123297;1099;104309;-76
2023/07/01 11:33:50;;;;;;;9.23;3.63;;;;;;;30.40;35.81;99704.36;123691;1099;108206;-78
2023/07/01 11:36:34;;;;;;;6.25;3.60;;;;;;;30.37;35.44;99696.39;123645;1099;104242;-77
2023/07/01 11:39:13;;;;;;;6.23;3.90;;;;;;;30.34;35.25;99701.09;123521;1099;104191;-76